createdAt,value
2023-03-06T00:02:19.884Z,5.90
2023-03-06T00:06:28.500Z,5.33
2023-03-06T00:10:57.203Z,4.53
2023-03-06T00:15:06.465Z,5.97
2023-03-06T00:19:15.072Z,7.60
2023-03-06T00:23:23.626Z,7.03
2023-03-06T00:27:33.456Z,7.23
2023-03-06T00:31:43.674Z,5.57
2023-03-06T00:35:52.261Z,6.07
2023-03-06T00:40:01.186Z,5.67
2023-03-06T00:44:09.810Z,7.23
2023-03-06T00:48:18.367Z,5.33
2023-03-06T00:52:26.920Z,7.93
2023-03-06T00:56:35.485Z,6.07
2023-03-06T01:00:44.179Z,8.93
2023-03-06T01:04:52.718Z,8.07
2023-03-06T01:09:01.287Z,9.30
2023-03-06T01:13:09.913Z,5.60
2023-03-06T01:17:18.520Z,5.37
2023-03-06T01:21:27.535Z,5.30
2023-03-06T01:25:36.194Z,8.73
2023-03-06T01:29:44.827Z,6.50
2023-03-06T01:33:53.581Z,5.30
2023-03-06T01:38:02.183Z,6.28
2023-03-06T01:42:10.815Z,6.33
2023-03-06T01:46:34.498Z,10.97
2023-03-06T01:50:43.434Z,10.70
2023-03-06T01:54:55.441Z,10.67
2023-03-06T01:59:04.718Z,8.67
2023-03-06T02:03:34.202Z,8.93
2023-03-06T02:07:45.139Z,11.30
2023-03-06T02:11:53.713Z,11.77
2023-03-06T02:16:02.864Z,15.83
2023-03-06T02:20:37.085Z,13.67
2023-03-06T02:24:54.636Z,15.80
2023-03-06T02:29:03.409Z,14.27
2023-03-06T02:33:14.850Z,11.20
2023-03-06T02:37:25.456Z,13.93
2023-03-06T02:41:34.054Z,9.20
2023-03-06T02:50:25.708Z,7.93
2023-03-06T02:54:34.443Z,17.70
2023-03-06T02:58:43.165Z,14.27
2023-03-06T03:02:51.998Z,8.67
2023-03-06T03:07:00.630Z,15.00
2023-03-06T03:11:10.895Z,7.60
2023-03-06T03:15:19.931Z,11.87
2023-03-06T03:19:28.664Z,9.87
2023-03-06T03:23:37.312Z,12.43
2023-03-06T03:27:45.931Z,11.40
2023-03-06T03:31:54.526Z,8.47
2023-03-06T03:36:22.749Z,13.27
2023-03-06T03:40:31.493Z,29.50
2023-03-06T03:44:40.100Z,11.90
2023-03-06T03:48:49.024Z,14.83
2023-03-06T03:52:57.701Z,13.80
2023-03-06T03:57:06.505Z,13.07
2023-03-06T04:01:15.153Z,18.07
2023-03-06T04:05:23.855Z,12.23
2023-03-06T04:09:32.599Z,17.10
2023-03-06T04:13:41.240Z,14.73
2023-03-06T04:17:49.808Z,17.83
2023-03-06T04:21:58.364Z,13.93
2023-03-06T04:26:06.987Z,13.47
2023-03-06T04:30:15.750Z,14.90
2023-03-06T04:34:24.365Z,14.93
2023-03-06T04:38:33.032Z,13.90
2023-03-06T04:42:41.724Z,11.70
2023-03-06T04:46:50.351Z,15.50
2023-03-06T04:51:18.231Z,14.50
2023-03-06T04:55:26.962Z,13.10
2023-03-06T04:59:36.914Z,15.57
2023-03-06T05:03:45.751Z,17.90
2023-03-06T05:07:54.999Z,12.13
2023-03-06T05:12:04.440Z,12.67
2023-03-06T05:16:32.391Z,11.10
2023-03-06T05:20:41.157Z,16.40
2023-03-06T05:24:49.798Z,14.80
2023-03-06T05:28:58.409Z,13.20
2023-03-06T05:33:06.934Z,14.57
2023-03-06T05:37:15.602Z,13.30
2023-03-06T05:41:24.402Z,17.60
2023-03-06T05:45:32.991Z,12.73
2023-03-06T05:49:42.113Z,13.77
2023-03-06T05:53:51.087Z,14.43
2023-03-06T05:57:59.778Z,16.60
2023-03-06T06:02:08.383Z,15.63
2023-03-06T06:06:17.439Z,23.67
2023-03-06T06:10:26.031Z,20.47
2023-03-06T06:14:35.784Z,22.10
2023-03-06T06:18:44.828Z,18.27
2023-03-06T06:22:53.391Z,20.43
2023-03-06T06:27:03.880Z,18.03
2023-03-06T06:31:13.857Z,21.30
2023-03-06T06:35:22.850Z,17.93
2023-03-06T06:39:31.446Z,17.57
2023-03-06T06:43:39.975Z,20.80
2023-03-06T06:47:50.573Z,18.90
2023-03-06T06:51:59.587Z,19.30
2023-03-06T06:56:08.287Z,17.00
2023-03-06T07:00:17.972Z,17.80
2023-03-06T07:04:26.600Z,19.77
2023-03-06T07:08:35.434Z,17.00
2023-03-06T07:12:44.374Z,13.10
2023-03-06T07:16:52.997Z,17.10
2023-03-06T07:21:01.661Z,15.37
2023-03-06T07:25:11.112Z,10.87
2023-03-06T07:29:19.830Z,17.87
2023-03-06T07:33:28.452Z,17.47
2023-03-06T07:37:37.037Z,22.13
2023-03-06T07:41:45.770Z,16.30
2023-03-06T07:45:58.853Z,20.70
2023-03-06T07:50:07.765Z,22.60
2023-03-06T07:54:16.412Z,16.50
2023-03-06T07:58:25.738Z,21.00
2023-03-06T08:02:38.167Z,16.03
2023-03-06T08:06:46.787Z,15.33
2023-03-06T08:11:15.844Z,20.67
2023-03-06T08:15:24.522Z,21.43
2023-03-06T08:19:33.150Z,15.53
2023-03-06T08:23:41.984Z,21.33
2023-03-06T08:28:09.963Z,19.63
2023-03-06T08:32:18.759Z,25.40
2023-03-06T08:36:28.350Z,16.43
2023-03-06T08:40:37.099Z,20.53
2023-03-06T08:44:45.819Z,17.60
2023-03-06T08:48:54.642Z,20.07
2023-03-06T08:53:03.174Z,16.90
2023-03-06T08:57:11.921Z,17.63
2023-03-06T09:01:28.973Z,32.30
2023-03-06T09:05:37.961Z,14.10
2023-03-06T09:09:46.589Z,16.07
2023-03-06T09:13:55.623Z,20.60
2023-03-06T09:18:04.202Z,21.80
2023-03-06T09:22:12.819Z,20.27
2023-03-06T09:26:28.054Z,17.23
2023-03-06T09:30:33.012Z,22.03
2023-03-06T09:35:01.719Z,21.80
2023-03-06T09:39:10.477Z,24.23
2023-03-06T09:43:22.132Z,15.53
2023-03-06T09:47:53.101Z,16.87
2023-03-06T09:52:23.024Z,23.23
2023-03-06T09:56:35.040Z,19.77
2023-03-06T10:00:49.598Z,16.77
2023-03-06T10:05:01.871Z,12.90
2023-03-06T10:09:16.685Z,17.60
2023-03-06T10:13:28.269Z,17.63
2023-03-06T10:17:42.755Z,14.47
2023-03-06T10:22:03.671Z,15.50
2023-03-06T10:26:17.450Z,15.47
2023-03-06T10:30:56.042Z,12.80
2023-03-06T10:35:07.751Z,11.97
2023-03-06T10:39:19.865Z,12.80
2023-03-06T10:43:28.400Z,12.33
2023-03-06T10:47:57.843Z,13.60
2023-03-06T10:52:09.518Z,12.70
2023-03-06T10:56:38.909Z,14.17
2023-03-06T11:00:47.766Z,8.10
2023-03-06T11:04:58.046Z,13.60
2023-03-06T11:09:18.684Z,11.40
2023-03-06T11:13:30.008Z,12.43
2023-03-06T11:17:41.725Z,11.20
2023-03-06T11:22:09.504Z,9.20
2023-03-06T11:26:23.743Z,6.87
2023-03-06T11:30:35.356Z,26.73
2023-03-06T11:34:56.278Z,9.77
2023-03-06T11:39:07.978Z,7.53
2023-03-06T11:43:25.387Z,8.00
2023-03-06T11:47:37.107Z,8.37
2023-03-06T11:51:54.543Z,7.37
2023-03-06T11:56:24.439Z,7.80
2023-03-06T12:00:48.259Z,6.47
2023-03-06T12:05:12.102Z,7.30
2023-03-06T12:09:26.623Z,6.80
2023-03-06T12:13:38.264Z,11.00
2023-03-06T12:18:25.546Z,13.67
2023-03-06T12:22:57.401Z,10.07
2023-03-06T12:27:18.492Z,6.53
2023-03-06T12:31:39.015Z,4.93
2023-03-06T12:36:11.199Z,8.53
2023-03-06T12:40:46.487Z,5.33
2023-03-06T12:45:03.617Z,4.43
2023-03-06T12:49:34.176Z,7.73
2023-03-06T12:53:44.577Z,5.63
2023-03-06T12:57:53.987Z,4.80
2023-03-06T13:02:28.792Z,4.47
2023-03-06T13:07:00.284Z,7.50
2023-03-06T13:11:18.719Z,5.60
2023-03-06T13:15:47.132Z,6.57
2023-03-06T13:20:15.532Z,6.90
2023-03-06T13:24:30.704Z,8.03
2023-03-06T13:28:46.231Z,5.70
2023-03-06T13:32:56.451Z,7.60
2023-03-06T13:37:23.518Z,4.70
2023-03-06T13:41:35.340Z,6.00
2023-03-06T13:45:44.396Z,5.33
2023-03-06T13:49:53.199Z,15.40
2023-03-06T13:54:08.885Z,6.70
2023-03-06T13:58:24.173Z,5.57
2023-03-06T14:02:50.488Z,4.73
2023-03-06T14:07:25.971Z,6.97
2023-03-06T14:11:36.409Z,6.63
2023-03-06T14:15:48.156Z,13.23
2023-03-06T14:19:59.195Z,10.40
2023-03-06T14:24:09.309Z,7.10
2023-03-06T14:28:26.677Z,14.10
2023-03-06T14:32:35.498Z,11.80
2023-03-06T14:36:46.604Z,12.67
2023-03-06T14:41:16.066Z,8.97
2023-03-06T14:49:40.218Z,5.77
2023-03-06T14:53:51.456Z,4.23
2023-03-06T14:58:03.094Z,3.93
2023-03-06T15:02:14.590Z,5.13
2023-03-06T15:06:37.805Z,6.30
2023-03-06T15:10:58.465Z,7.80
2023-03-06T15:15:13.154Z,7.87
2023-03-06T15:19:23.314Z,10.20
2023-03-06T15:23:40.470Z,10.47
2023-03-06T15:27:51.820Z,8.73
2023-03-06T15:32:32.442Z,10.97
2023-03-06T15:36:54.247Z,11.73
2023-03-06T15:41:05.222Z,13.30
2023-03-06T15:45:19.589Z,14.63
2023-03-06T15:49:28.214Z,17.03
2023-03-06T15:53:36.844Z,18.80
2023-03-06T15:57:51.342Z,9.58
2023-03-06T16:02:05.749Z,17.10
2023-03-06T16:06:20.304Z,11.57
2023-03-06T16:10:31.775Z,12.93
2023-03-06T16:14:41.167Z,7.80
2023-03-06T16:18:49.725Z,6.57
2023-03-06T16:22:58.437Z,12.33
2023-03-06T16:27:07.356Z,9.07
2023-03-06T16:31:16.370Z,10.77
2023-03-06T16:35:25.488Z,11.50
2023-03-06T16:39:34.057Z,8.77
2023-03-06T16:43:42.705Z,11.53
2023-03-06T16:48:12.223Z,8.50
2023-03-06T16:52:20.853Z,15.63
2023-03-06T16:56:29.348Z,12.63
2023-03-06T17:00:38.112Z,16.70
2023-03-06T17:05:06.591Z,13.30
2023-03-06T17:09:15.141Z,14.23
2023-03-06T17:13:23.761Z,16.50
2023-03-06T17:17:32.603Z,12.53
2023-03-06T17:21:41.670Z,11.13
2023-03-06T17:25:50.267Z,18.43
2023-03-06T17:30:00.124Z,13.75
2023-03-06T17:34:08.965Z,17.83
2023-03-06T17:38:17.582Z,15.53
2023-03-06T17:42:26.086Z,16.23
2023-03-06T17:46:34.848Z,17.87
2023-03-06T17:50:45.034Z,21.90
2023-03-06T17:54:53.589Z,17.13
2023-03-06T17:59:02.195Z,16.90
2023-03-06T18:03:10.990Z,21.13
2023-03-06T18:07:39.277Z,23.87
2023-03-06T18:11:48.113Z,21.23
2023-03-06T18:15:56.750Z,21.63
2023-03-06T18:20:05.993Z,23.30
2023-03-06T18:24:14.933Z,17.60
2023-03-06T18:28:23.553Z,22.90
2023-03-06T18:32:32.553Z,19.00
2023-03-06T18:36:46.536Z,19.90
2023-03-06T18:40:55.172Z,29.20
2023-03-06T18:45:03.802Z,28.00
2023-03-06T18:49:13.835Z,22.83
2023-03-06T18:53:23.438Z,20.50
2023-03-06T18:57:31.993Z,20.80
2023-03-06T19:01:46.348Z,18.13
2023-03-06T19:05:54.934Z,23.33
2023-03-06T19:10:03.663Z,20.70
2023-03-06T19:14:12.295Z,20.77
2023-03-06T19:18:21.036Z,17.87
2023-03-06T19:22:29.656Z,24.70
2023-03-06T19:26:38.184Z,17.03
2023-03-06T19:30:46.813Z,13.70
2023-03-06T19:34:57.081Z,20.50
2023-03-06T19:39:07.757Z,23.93
2023-03-06T19:43:16.405Z,18.20
2023-03-06T19:47:25.062Z,18.43
2023-03-06T19:51:33.648Z,15.47
2023-03-06T19:55:42.907Z,21.40
2023-03-06T19:59:52.241Z,21.80
2023-03-06T20:04:01.285Z,21.70
2023-03-06T20:08:09.814Z,21.53
2023-03-06T20:12:18.637Z,18.10
2023-03-06T20:16:28.915Z,23.40
2023-03-06T20:20:43.500Z,22.40
2023-03-06T20:24:52.479Z,17.33
2023-03-06T20:29:01.225Z,23.57
2023-03-06T20:33:09.962Z,16.67
2023-03-06T20:37:18.812Z,22.03
2023-03-06T20:41:46.862Z,22.70
2023-03-06T20:46:06.017Z,15.80
2023-03-06T20:50:16.109Z,20.07
2023-03-06T20:54:24.946Z,24.30
2023-03-06T20:58:33.782Z,16.80
2023-03-06T21:02:44.051Z,18.97
2023-03-06T21:06:54.878Z,22.97
2023-03-06T21:11:03.430Z,21.60
2023-03-06T21:15:12.965Z,22.50
2023-03-06T21:19:21.493Z,23.37
2023-03-06T21:23:30.128Z,19.90
2023-03-06T21:27:38.793Z,17.20
2023-03-06T21:31:47.527Z,18.00
2023-03-06T21:35:56.145Z,18.50
2023-03-06T21:40:07.985Z,17.73
2023-03-06T21:44:16.565Z,17.90
2023-03-06T21:48:25.228Z,21.40
2023-03-06T21:52:33.856Z,30.90
2023-03-06T21:56:42.574Z,24.43
2023-03-06T22:00:51.177Z,24.30
2023-03-06T22:04:59.834Z,16.60
2023-03-06T22:09:27.848Z,18.63
2023-03-06T22:13:36.848Z,22.80
2023-03-06T22:17:47.119Z,17.50
2023-03-06T22:21:56.108Z,17.40
2023-03-06T22:26:24.146Z,15.87
2023-03-06T22:30:32.783Z,16.80
2023-03-06T22:34:43.594Z,21.67
2023-03-06T22:38:57.481Z,25.50
2023-03-06T22:43:06.124Z,15.50
2023-03-06T22:47:14.873Z,16.30
2023-03-06T22:51:23.797Z,17.60
2023-03-06T22:55:33.852Z,14.13
2023-03-06T22:59:42.790Z,12.07
2023-03-06T23:03:53.251Z,16.27
2023-03-06T23:08:01.896Z,20.90
2023-03-06T23:12:11.651Z,20.10
2023-03-06T23:16:20.481Z,13.03
2023-03-06T23:20:29.003Z,16.03
2023-03-06T23:24:37.740Z,17.60
2023-03-06T23:29:05.729Z,11.93
2023-03-06T23:33:14.350Z,14.27
2023-03-06T23:37:23.081Z,17.40
2023-03-06T23:41:31.608Z,8.37
2023-03-06T23:45:40.241Z,10.10
2023-03-06T23:49:48.874Z,8.73
2023-03-06T23:53:59.716Z,10.70
2023-03-06T23:58:27.731Z,7.10
